Chicago, IL

6:08 PM CDT on July 25, 2017 (GMT -0500)
George Street | | Change Station
Active Advisory: Flood Warning

Elev 656 ft 41.94 °N, 87.88 °W | Updated 10 minutes ago

Overcast
Overcast
80.1 °F
Feels Like 81 °F
N
3.7
Wind Variable Wind from NE
Gusts 11.8 mph

Today
High -- | Low -- °F
--% Chance of Precip.
Yesterday
High -- | Low -- °F
Precip. -- in
Pressure 30.11 in
Visibility 10.0 miles
Clouds Few 5500 ft
Few 22000 ft
Overcast 25000 ft
Heat Index 81 °F
Dew Point 60 °F
Humidity 50%
Rainfall 0.00 in
Snow Depth Not available.
5:38 AM 8:17 PM
Waxing Crescent, 9% visible
METAR KORD 252251Z 13014KT 10SM FEW055 FEW220 OVC250 26/13 A3012 RMK AO2 SLP194 T02560133
Pressure 30.11 in
Visibility 10.0 miles
Clouds Few 5500 ft
Few 22000 ft
Overcast 25000 ft
Heat Index 81 °F
Dew Point 60 °F
Humidity 50%
Rainfall 0.00 in
Snow Depth Not available.
5:38 AM 8:17 PM
Waxing Crescent, 9% visible
METAR KORD 252251Z 13014KT 10SM FEW055 FEW220 OVC250 26/13 A3012 RMK AO2 SLP194 T02560133

Get Your Daily Forecast Email!

Thanks for signing up!

Be on the lookout for a verification email in your inbox.

You'll start receiving severe weather alerts in your inbox..

×

10-Day Weather Forecast

Almanac

Astronomy

Jul. 25, 2017 Rise Set
Actual Time
Civil Twilight
Nautical Twilight
Astronomical Twilight
Moon
Length of Visible Light
Length of Day
Tomorrow will be .
, % of the Moon is Illuminated

Today's Extremes

State Highs State Lows

Community

WunderPhotos

Category 6

Welcome to Category 6. This is the collective home for Weather Underground's featured writeups by Dr. Jeff Masters (right), Bob Henson (left), Chris Burt, and other regular contributors.

Nearby

Air Quality

  Air Quality AQ Index Pollutant
Not available.

Snow Depth

Station Depth Elevation

Earthquake Activity

City Distance Mag. Time & Date
Minimum magnitude displayed is 2.5.

Coastal Water Temperatures

Place Temperature

Stations

Nearby Weather Stations

Station Location Temp. Windchill Dew Point Humidity Wind Precip. Elev Updated Type
                   

Watches & Warnings

Flood Warning
Issued: 8:19 AM CDT Jul. 25, 2017 – National Weather Service

The Flood Warning continues for
the Des Plaines river near Des Plaines.
* Until Wednesday afternoon.
* At 745 am Tuesday the stage was 16.1 feet.
* Flood stage is 15.0 feet.
* Recent activity... gage datum was changed by 10 feet on Nov 14 2014.
Flood thresholds and flood impacts are now 10 feet higher than
previous values.
* Minor flooding is occurring and minor flooding is forecast.
* Forecast... the river will continue to fall to below flood stage by
Wednesday morning.
* Impact... at 15.5 feet... water reaches some backyards along Big Bend
drive.


Lat... Lon 4212 8784 4196 8780 4196 8790 4212 8794